Time;durP1;ratioP1;P1;durP2;ratioP2;P2;SDS_P1;SDS_P2;PMS_P1;PMS_P2;Temp;Humidity;BMP_temperature;BMP_pressure;BME280_temperature;BME280_humidity;BME280_pressure;Samples;Min_cycle;Max_cycle;Signal;HPM_P1;HPM_P2
2022/10/31 00:00:19;;;;;;;19.33;9.10;;;;;;;;;;5004794;28;20066;-76
2022/10/31 00:02:46;;;;;;;16.83;9.07;;;;;;;;;;5009580;28;20081;-76
2022/10/31 00:05:19;;;;;;;13.15;8.10;;;;;;;;;;5008005;28;20093;-74
2022/10/31 00:08:28;;;;;;;19.38;9.82;;;;;;;;;;5000035;28;20621;-74
2022/10/31 00:11:10;;;;;;;22.75;9.68;;;;;;;;;;4979489;28;20069;-74
2022/10/31 00:13:38;;;;;;;20.33;9.35;;;;;;;;;;4971191;28;20664;-74
2022/10/31 00:16:13;;;;;;;22.23;9.20;;;;;;;;;;4971577;28;20822;-74
2022/10/31 00:18:43;;;;;;;24.27;9.00;;;;;;;;;;4982219;28;20047;-76
2022/10/31 00:21:14;;;;;;;23.88;10.38;;;;;;;;;;4988517;28;20074;-74
2022/10/31 00:23:42;;;;;;;16.85;9.88;;;;;;;;;;4972592;28;20155;-73
2022/10/31 00:27:10;;;;;;;19.58;10.13;;;;;;;;;;4987617;28;20043;-74
2022/10/31 00:29:27;;;;;;;19.58;9.38;;;;;;;;;;4979394;28;20051;-74
2022/10/31 00:32:08;;;;;;;13.45;8.82;;;;;;;;;;4983832;28;20051;-74
2022/10/31 00:34:52;;;;;;;23.67;9.82;;;;;;;;;;4952512;28;21051;-76
2022/10/31 00:37:42;;;;;;;16.67;8.57;;;;;;;;;;4978422;28;20077;-73
2022/10/31 00:40:11;;;;;;;21.10;9.93;;;;;;;;;;4981594;28;20866;-76
2022/10/31 00:42:42;;;;;;;16.73;8.75;;;;;;;;;;4987132;28;20050;-73
2022/10/31 00:45:13;;;;;;;22.48;9.77;;;;;;;;;;4982245;28;20876;-73
2022/10/31 00:47:45;;;;;;;21.42;10.48;;;;;;;;;;4993723;28;20059;-73
2022/10/31 00:50:12;;;;;;;22.20;10.07;;;;;;;;;;5011116;28;20514;-76
2022/10/31 00:52:39;;;;;;;23.25;10.20;;;;;;;;;;5011299;28;20116;-75
2022/10/31 00:55:07;;;;;;;24.80;10.32;;;;;;;;;;5005524;28;20141;-76
2022/10/31 00:57:35;;;;;;;15.95;9.25;;;;;;;;;;5020542;28;20051;-75
2022/10/31 01:00:08;;;;;;;15.75;9.02;;;;;;;;;;5009959;28;20061;-76
2022/10/31 01:03:05;;;;;;;16.35;9.20;;;;;;;;;;5011051;28;20058;-73
2022/10/31 01:05:50;;;;;;;18.00;9.50;;;;;;;;;;5006019;28;20043;-73
2022/10/31 01:08:21;;;;;;;20.95;9.18;;;;;;;;;;5005368;28;20054;-75
2022/10/31 01:11:08;;;;;;;19.13;8.87;;;;;;;;;;5017283;28;20158;-75
2022/10/31 01:13:44;;;;;;;15.38;9.23;;;;;;;;;;5001971;28;20046;-76
2022/10/31 01:16:26;;;;;;;21.50;9.18;;;;;;;;;;5003759;28;20058;-74
2022/10/31 01:19:19;;;;;;;21.27;9.98;;;;;;;;;;5010276;28;20054;-75
2022/10/31 01:21:59;;;;;;;19.42;9.93;;;;;;;;;;5007373;28;20042;-73
2022/10/31 01:24:33;;;;;;;22.35;9.95;;;;;;;;;;5000761;28;20161;-73
2022/10/31 01:27:07;;;;;;;18.15;8.90;;;;;;;;;;4999952;28;20046;-73
2022/10/31 01:29:35;;;;;;;21.42;9.63;;;;;;;;;;5004226;28;20083;-75
2022/10/31 01:32:05;;;;;;;15.50;8.68;;;;;;;;;;5003066;28;20157;-73
2022/10/31 01:34:32;;;;;;;21.85;9.90;;;;;;;;;;5010719;28;20066;-75
2022/10/31 01:37:09;;;;;;;24.73;10.38;;;;;;;;;;5004247;28;20149;-75
2022/10/31 01:39:42;;;;;;;19.58;9.40;;;;;;;;;;5004560;28;20042;-74
2022/10/31 01:42:18;;;;;;;17.88;8.80;;;;;;;;;;5008639;28;20109;-75
2022/10/31 01:45:06;;;;;;;15.40;8.35;;;;;;;;;;4993503;28;20521;-75
2022/10/31 01:47:55;;;;;;;22.02;9.55;;;;;;;;;;5003724;28;20069;-74
2022/10/31 01:50:38;;;;;;;17.65;8.90;;;;;;;;;;4993205;28;20109;-74
2022/10/31 01:53:11;;;;;;;22.15;9.38;;;;;;;;;;5006170;28;20058;-75
2022/10/31 01:55:53;;;;;;;17.75;9.13;;;;;;;;;;5006963;28;20564;-75
2022/10/31 01:58:25;;;;;;;24.20;9.98;;;;;;;;;;5006409;28;20088;-74
2022/10/31 02:00:56;;;;;;;20.73;9.88;;;;;;;;;;4997325;28;20055;-73
2022/10/31 02:03:32;;;;;;;23.35;9.80;;;;;;;;;;5014806;28;20141;-74
2022/10/31 02:06:17;;;;;;;17.52;9.63;;;;;;;;;;4996894;28;20064;-74
2022/10/31 02:08:48;;;;;;;18.30;9.65;;;;;;;;;;5007023;28;20868;-75
2022/10/31 02:11:29;;;;;;;21.13;9.20;;;;;;;;;;5004143;28;20050;-74
2022/10/31 02:14:10;;;;;;;17.20;8.27;;;;;;;;;;4969703;28;20058;-74
2022/10/31 02:16:38;;;;;;;16.40;7.70;;;;;;;;;;5001750;28;20043;-75
2022/10/31 02:19:09;;;;;;;17.85;5.90;;;;;;;;;;5017962;28;20056;-75
2022/10/31 02:21:47;;;;;;;7.28;3.00;;;;;;;;;;5001845;28;20595;-74
2022/10/31 02:24:30;;;;;;;4.50;3.20;;;;;;;;;;5001161;28;20108;-74
2022/10/31 02:27:03;;;;;;;5.10;3.40;;;;;;;;;;5019982;28;20054;-74
2022/10/31 02:29:53;;;;;;;8.43;4.13;;;;;;;;;;5002329;28;20965;-73
2022/10/31 02:32:31;;;;;;;5.32;3.95;;;;;;;;;;5003246;28;20819;-74
2022/10/31 02:35:05;;;;;;;5.18;3.80;;;;;;;;;;4996325;28;20054;-74
2022/10/31 02:37:46;;;;;;;11.75;4.28;;;;;;;;;;5006667;28;20065;-74
2022/10/31 02:40:16;;;;;;;10.10;4.95;;;;;;;;;;5001643;28;20840;-74
2022/10/31 02:42:50;;;;;;;8.63;4.75;;;;;;;;;;5002869;28;20046;-74
2022/10/31 02:45:32;;;;;;;11.00;5.40;;;;;;;;;;5002589;28;20099;-74
2022/10/31 02:48:18;;;;;;;18.98;4.90;;;;;;;;;;5016704;28;20131;-75
2022/10/31 02:51:04;;;;;;;11.63;4.80;;;;;;;;;;4998905;28;20950;-75
2022/10/31 02:53:35;;;;;;;9.90;4.97;;;;;;;;;;4999961;28;20078;-75
2022/10/31 02:56:07;;;;;;;8.15;4.90;;;;;;;;;;4997627;28;20059;-73
2022/10/31 02:58:37;;;;;;;9.02;5.65;;;;;;;;;;5001020;28;20042;-75
2022/10/31 03:01:31;;;;;;;11.73;5.68;;;;;;;;;;5004434;28;20097;-74
2022/10/31 03:04:20;;;;;;;10.40;5.95;;;;;;;;;;5003393;28;20139;-73
2022/10/31 03:06:48;;;;;;;12.32;5.85;;;;;;;;;;5002064;28;20081;-74
2022/10/31 03:09:18;;;;;;;12.55;6.10;;;;;;;;;;4997512;28;20054;-74
2022/10/31 03:12:22;;;;;;;12.73;5.93;;;;;;;;;;4998693;28;20042;-75
2022/10/31 03:15:13;;;;;;;9.63;4.40;;;;;;;;;;4945619;28;20131;-74
2022/10/31 03:18:31;;;;;;;8.80;4.65;;;;;;;;;;4940453;28;20056;-75
2022/10/31 03:21:02;;;;;;;4.15;3.00;;;;;;;;;;4947152;28;20083;-75
2022/10/31 03:23:31;;;;;;;10.05;3.20;;;;;;;;;;4947183;28;20186;-74
2022/10/31 03:26:23;;;;;;;5.18;2.95;;;;;;;;;;4947007;28;20048;-73
2022/10/31 03:29:09;;;;;;;4.82;2.95;;;;;;;;;;4945068;28;20043;-74
2022/10/31 03:31:45;;;;;;;5.57;2.97;;;;;;;;;;4947447;28;20048;-74
2022/10/31 03:34:14;;;;;;;7.63;3.22;;;;;;;;;;4946177;28;20281;-75
2022/10/31 03:36:57;;;;;;;5.07;3.22;;;;;;;;;;4943475;28;20821;-75
2022/10/31 03:39:29;;;;;;;13.05;3.42;;;;;;;;;;4948763;28;20939;-74
2022/10/31 03:42:12;;;;;;;8.15;3.55;;;;;;;;;;4943224;28;20112;-74
2022/10/31 03:44:44;;;;;;;12.43;4.15;;;;;;;;;;4947034;28;20094;-74
2022/10/31 03:47:12;;;;;;;6.70;4.05;;;;;;;;;;4946180;28;20059;-74
2022/10/31 03:49:42;;;;;;;10.85;5.15;;;;;;;;;;4954171;28;20812;-74
2022/10/31 03:52:19;;;;;;;11.80;4.93;;;;;;;;;;5003876;28;20149;-75
2022/10/31 03:55:06;;;;;;;7.82;4.72;;;;;;;;;;5001865;28;20153;-75
2022/10/31 03:57:42;;;;;;;10.53;4.83;;;;;;;;;;4999004;28;20920;-74
2022/10/31 04:00:21;;;;;;;10.75;4.57;;;;;;;;;;5003318;28;21315;-75
2022/10/31 04:03:14;;;;;;;6.78;3.25;;;;;;;;;;4999024;28;20054;-75
2022/10/31 04:05:47;;;;;;;6.60;2.75;;;;;;;;;;5000186;28;20050;-74
2022/10/31 04:08:20;;;;;;;3.50;2.20;;;;;;;;;;4997877;28;20046;-75
2022/10/31 04:10:57;;;;;;;10.65;2.97;;;;;;;;;;5000317;28;20153;-75
2022/10/31 04:13:27;;;;;;;9.18;4.07;;;;;;;;;;4993531;28;20061;-75
2022/10/31 04:16:03;;;;;;;11.18;4.00;;;;;;;;;;5011136;28;20050;-74
2022/10/31 04:18:30;;;;;;;;;;;;;;;;;;5007323;28;20094;-74
2022/10/31 04:21:03;;;;;;;23.23;5.10;;;;;;;;;;5009538;28;41698;-75
2022/10/31 04:23:31;;;;;;;12.15;4.97;;;;;;;;;;5007239;28;20137;-74
2022/10/31 04:26:01;;;;;;;10.55;4.50;;;;;;;;;;5003332;28;20050;-74
2022/10/31 04:28:33;;;;;;;10.30;4.93;;;;;;;;;;5007361;28;20042;-74
2022/10/31 04:31:18;;;;;;;9.82;4.55;;;;;;;;;;5003787;28;20047;-74
2022/10/31 04:33:46;;;;;;;11.05;4.95;;;;;;;;;;5010030;28;20053;-75
2022/10/31 04:36:17;;;;;;;10.38;5.45;;;;;;;;;;5006971;28;20097;-74
2022/10/31 04:38:48;;;;;;;16.50;6.35;;;;;;;;;;5011685;28;20817;-74
2022/10/31 04:41:22;;;;;;;11.73;5.53;;;;;;;;;;5008743;28;20969;-74
2022/10/31 04:43:50;;;;;;;12.32;5.63;;;;;;;;;;5012670;28;20086;-74
2022/10/31 04:46:27;;;;;;;10.00;5.57;;;;;;;;;;5008464;28;20053;-74
2022/10/31 04:49:06;;;;;;;12.95;5.95;;;;;;;;;;5014941;28;20053;-74
2022/10/31 04:51:44;;;;;;;14.02;5.88;;;;;;;;;;5008103;28;20042;-74
2022/10/31 04:54:34;;;;;;;11.38;5.75;;;;;;;;;;5007490;28;20055;-75
2022/10/31 04:57:05;;;;;;;12.77;5.88;;;;;;;;;;5007743;28;20792;-74
2022/10/31 04:59:57;;;;;;;12.02;5.93;;;;;;;;;;5009111;28;20069;-74
2022/10/31 05:02:26;;;;;;;9.48;4.97;;;;;;;;;;5008565;28;20054;-75
2022/10/31 05:04:55;;;;;;;11.52;4.97;;;;;;;;;;5017835;28;20150;-75
2022/10/31 05:07:25;;;;;;;15.25;5.90;;;;;;;;;;5019850;28;20038;-74
2022/10/31 05:09:53;;;;;;;12.32;5.90;;;;;;;;;;5009737;28;20109;-74
2022/10/31 05:12:20;;;;;;;12.75;5.93;;;;;;;;;;5012820;28;20145;-75
2022/10/31 05:14:51;;;;;;;12.10;5.00;;;;;;;;;;5016631;28;20050;-74
2022/10/31 05:17:18;;;;;;;7.68;3.63;;;;;;;;;;5017671;28;20128;-73
2022/10/31 05:19:56;;;;;;;6.93;3.00;;;;;;;;;;5018915;28;20049;-74
2022/10/31 05:22:55;;;;;;;4.07;2.60;;;;;;;;;;5015752;28;20124;-73
2022/10/31 05:25:29;;;;;;;4.88;2.47;;;;;;;;;;5023995;28;20038;-74
2022/10/31 05:28:11;;;;;;;6.85;2.72;;;;;;;;;;5007072;28;20082;-74
2022/10/31 05:30:44;;;;;;;7.32;2.85;;;;;;;;;;5018456;28;20047;-73
2022/10/31 05:33:12;;;;;;;42.78;4.80;;;;;;;;;;5017842;28;20101;-74
2022/10/31 05:35:42;;;;;;;140.77;9.45;;;;;;;;;;5019944;28;20062;-74
2022/10/31 05:38:16;;;;;;;107.35;8.23;;;;;;;;;;5017432;28;20207;-74
2022/10/31 05:40:53;;;;;;;63.80;7.13;;;;;;;;;;5017363;28;20903;-74
2022/10/31 05:43:21;;;;;;;111.63;9.80;;;;;;;;;;5015491;28;20059;-74
2022/10/31 05:46:02;;;;;;;169.82;12.65;;;;;;;;;;5018576;28;20889;-73
2022/10/31 05:48:33;;;;;;;166.25;13.15;;;;;;;;;;5015919;28;20074;-74
2022/10/31 05:51:02;;;;;;;189.98;14.00;;;;;;;;;;5023302;28;20050;-73
2022/10/31 05:53:39;;;;;;;68.43;9.52;;;;;;;;;;5015462;28;20078;-74
2022/10/31 05:56:09;;;;;;;31.33;7.55;;;;;;;;;;5016231;28;20351;-73
2022/10/31 05:58:42;;;;;;;60.97;7.53;;;;;;;;;;5016216;28;20112;-74
2022/10/31 06:01:15;;;;;;;91.53;6.70;;;;;;;;;;5017609;28;20088;-73
2022/10/31 06:03:43;;;;;;;;;;;;;;;;;;5018272;28;20073;-73
2022/10/31 06:06:23;;;;;;;94.45;8.27;;;;;;;;;;5015668;28;42114;-73
2022/10/31 06:08:51;;;;;;;61.35;9.35;;;;;;;;;;5021734;28;20039;-74
2022/10/31 06:11:18;;;;;;;105.90;6.70;;;;;;;;;;5020151;28;20035;-73
2022/10/31 06:13:45;;;;;;;159.27;9.35;;;;;;;;;;5023313;28;20047;-74
2022/10/31 06:16:12;;;;;;;12.30;5.57;;;;;;;;;;5016835;28;20046;-74
2022/10/31 06:18:49;;;;;;;60.50;7.47;;;;;;;;;;5017035;28;20082;-74
2022/10/31 06:21:39;;;;;;;28.33;6.60;;;;;;;;;;4983101;28;20880;-74
2022/10/31 06:24:06;;;;;;;31.73;6.47;;;;;;;;;;5022689;28;20038;-75
2022/10/31 06:26:37;;;;;;;19.55;6.47;;;;;;;;;;5019114;28;20046;-74
2022/10/31 06:29:04;;;;;;;10.07;5.13;;;;;;;;;;5022714;28;20647;-74
2022/10/31 06:31:31;;;;;;;13.32;6.88;;;;;;;;;;5021584;28;20046;-74
2022/10/31 06:33:58;;;;;;;16.02;7.07;;;;;;;;;;5018918;28;20119;-74
2022/10/31 06:36:25;;;;;;;14.05;7.43;;;;;;;;;;5019177;28;20701;-75
2022/10/31 06:38:53;;;;;;;15.68;6.78;;;;;;;;;;5023159;28;20098;-74
2022/10/31 06:41:20;;;;;;;13.45;7.97;;;;;;;;;;5019067;28;20054;-74
2022/10/31 06:43:49;;;;;;;18.10;8.02;;;;;;;;;;5018915;28;20042;-74
2022/10/31 06:46:16;;;;;;;20.38;8.57;;;;;;;;;;5019078;28;20049;-74
2022/10/31 06:48:49;;;;;;;20.15;9.43;;;;;;;;;;5018729;28;20042;-74
2022/10/31 06:51:16;;;;;;;13.52;7.68;;;;;;;;;;5014610;28;20058;-74
2022/10/31 06:53:43;;;;;;;16.38;8.13;;;;;;;;;;5019640;28;20038;-75
2022/10/31 06:56:11;;;;;;;17.77;8.00;;;;;;;;;;5020847;28;20054;-74
2022/10/31 06:58:39;;;;;;;17.58;8.18;;;;;;;;;;5021909;28;20076;-73
2022/10/31 07:01:06;;;;;;;17.10;8.75;;;;;;;;;;5019468;28;20050;-74
2022/10/31 07:03:47;;;;;;;17.35;8.88;;;;;;;;;;5013736;28;20106;-74
2022/10/31 07:06:17;;;;;;;18.45;8.93;;;;;;;;;;5015499;28;20050;-75
2022/10/31 07:08:44;;;;;;;25.67;9.57;;;;;;;;;;5018604;28;20121;-74
2022/10/31 07:11:15;;;;;;;17.85;8.75;;;;;;;;;;5013559;28;20146;-74
2022/10/31 07:13:43;;;;;;;26.30;9.32;;;;;;;;;;5006557;28;20043;-73
2022/10/31 07:16:12;;;;;;;19.83;9.27;;;;;;;;;;5011061;28;20050;-74
2022/10/31 07:18:42;;;;;;;20.95;9.40;;;;;;;;;;5029277;28;20053;-74
2022/10/31 07:21:09;;;;;;;18.42;9.95;;;;;;;;;;5017866;28;20343;-73
2022/10/31 07:23:39;;;;;;;19.90;9.98;;;;;;;;;;5012710;28;20884;-73
2022/10/31 07:26:10;;;;;;;20.23;10.43;;;;;;;;;;5008037;28;20059;-74
2022/10/31 07:28:38;;;;;;;21.30;11.02;;;;;;;;;;5009408;28;20528;-74
2022/10/31 07:31:08;;;;;;;20.88;9.80;;;;;;;;;;5013291;28;20059;-73
2022/10/31 07:34:04;;;;;;;18.73;10.70;;;;;;;;;;5009358;28;20061;-74
2022/10/31 07:36:34;;;;;;;11.57;6.63;;;;;;;;;;4957261;28;20129;-74
2022/10/31 07:39:02;;;;;;;13.00;7.60;;;;;;;;;;4978428;28;20066;-74
2022/10/31 07:41:40;;;;;;;17.63;6.63;;;;;;;;;;4972794;28;20043;-74
2022/10/31 07:44:08;;;;;;;11.68;6.85;;;;;;;;;;4977991;28;20043;-74
2022/10/31 07:46:35;;;;;;;18.45;7.28;;;;;;;;;;4967700;28;20044;-73
2022/10/31 07:49:06;;;;;;;17.30;7.55;;;;;;;;;;4976981;28;20058;-73
2022/10/31 07:51:43;;;;;;;13.73;7.13;;;;;;;;;;4979314;28;20102;-74
2022/10/31 07:54:12;;;;;;;18.73;7.70;;;;;;;;;;4972249;28;20047;-73
2022/10/31 07:56:40;;;;;;;19.33;8.13;;;;;;;;;;4982657;28;20051;-73
2022/10/31 07:59:07;;;;;;;20.17;8.82;;;;;;;;;;4983374;28;20047;-73
2022/10/31 08:01:37;;;;;;;15.57;8.57;;;;;;;;;;4976983;28;20046;-74
2022/10/31 08:04:07;;;;;;;24.70;8.98;;;;;;;;;;4974247;28;20051;-74
2022/10/31 08:06:34;;;;;;;18.23;7.97;;;;;;;;;;4979605;28;20079;-73
2022/10/31 08:09:01;;;;;;;14.48;8.27;;;;;;;;;;4973346;28;20048;-74
2022/10/31 08:11:28;;;;;;;18.33;8.18;;;;;;;;;;4983082;28;20039;-74
2022/10/31 08:13:59;;;;;;;15.60;8.40;;;;;;;;;;4979480;28;20045;-74
2022/10/31 08:16:27;;;;;;;15.48;8.45;;;;;;;;;;4981299;28;20043;-74
2022/10/31 08:18:56;;;;;;;20.05;8.80;;;;;;;;;;4998949;28;20809;-74
2022/10/31 08:21:24;;;;;;;20.98;8.68;;;;;;;;;;4982163;28;20055;-74
2022/10/31 08:23:52;;;;;;;20.42;9.27;;;;;;;;;;4982610;28;20051;-74
2022/10/31 08:26:20;;;;;;;17.30;9.02;;;;;;;;;;4980951;28;20143;-74
2022/10/31 08:28:47;;;;;;;18.10;9.35;;;;;;;;;;4984346;28;20138;-74
2022/10/31 08:31:25;;;;;;;17.77;10.05;;;;;;;;;;4977208;28;20127;-74
2022/10/31 08:34:00;;;;;;;20.15;9.98;;;;;;;;;;4990794;28;20061;-73
2022/10/31 08:36:27;;;;;;;21.50;9.68;;;;;;;;;;5013225;28;20062;-74
2022/10/31 08:38:54;;;;;;;22.58;11.52;;;;;;;;;;5017996;28;20042;-73
2022/10/31 08:41:28;;;;;;;22.02;11.45;;;;;;;;;;5019779;28;20058;-74
2022/10/31 08:43:55;;;;;;;28.85;13.10;;;;;;;;;;5012346;28;20057;-74
2022/10/31 08:46:35;;;;;;;23.48;12.07;;;;;;;;;;5023072;28;20038;-74
2022/10/31 08:49:08;;;;;;;22.57;12.27;;;;;;;;;;5012751;28;21033;-72
2022/10/31 08:51:35;;;;;;;29.58;14.95;;;;;;;;;;5022082;28;20281;-74
2022/10/31 08:54:11;;;;;;;23.38;13.10;;;;;;;;;;5015175;28;20872;-73
2022/10/31 08:56:39;;;;;;;27.85;15.82;;;;;;;;;;5011236;28;20108;-73
2022/10/31 08:59:12;;;;;;;30.10;16.30;;;;;;;;;;5024125;28;20045;-73
2022/10/31 09:01:40;;;;;;;42.58;20.83;;;;;;;;;;5017658;28;20109;-73
2022/10/31 09:04:07;;;;;;;34.33;19.95;;;;;;;;;;5019003;28;20038;-75
2022/10/31 09:06:35;;;;;;;34.15;19.58;;;;;;;;;;5019228;28;20046;-74
2022/10/31 09:09:23;;;;;;;32.45;19.08;;;;;;;;;;5015794;28;20058;-74
2022/10/31 09:12:02;;;;;;;33.97;19.40;;;;;;;;;;5015871;28;20368;-73
2022/10/31 09:14:32;;;;;;;37.83;20.98;;;;;;;;;;5013182;28;20081;-73
2022/10/31 09:17:02;;;;;;;35.80;21.17;;;;;;;;;;5012463;28;20058;-74
2022/10/31 09:19:30;;;;;;;35.88;19.10;;;;;;;;;;5009621;28;20082;-74
2022/10/31 09:21:59;;;;;;;31.45;18.33;;;;;;;;;;5006389;28;20102;-73
2022/10/31 09:24:28;;;;;;;34.35;17.20;;;;;;;;;;4998140;28;20062;-73
2022/10/31 09:26:59;;;;;;;31.40;16.98;;;;;;;;;;5007435;28;20525;-74
2022/10/31 09:29:29;;;;;;;32.45;16.63;;;;;;;;;;5009387;28;20045;-75
2022/10/31 09:31:57;;;;;;;27.80;16.52;;;;;;;;;;5002123;28;20038;-73
2022/10/31 09:34:24;;;;;;;33.85;17.55;;;;;;;;;;5006228;28;20053;-73
2022/10/31 09:36:53;;;;;;;33.15;17.35;;;;;;;;;;5012904;28;20054;-75
2022/10/31 09:39:28;;;;;;;32.38;16.77;;;;;;;;;;5011671;28;20109;-73
2022/10/31 09:42:15;;;;;;;38.20;17.75;;;;;;;;;;5007459;28;20054;-74
2022/10/31 09:44:50;;;;;;;31.98;17.95;;;;;;;;;;4999953;28;20050;-74
2022/10/31 09:47:39;;;;;;;30.77;17.35;;;;;;;;;;5009523;28;20803;-74
2022/10/31 09:50:47;;;;;;;30.85;17.42;;;;;;;;;;5006651;28;20197;-74
2022/10/31 09:53:26;;;;;;;27.10;16.55;;;;;;;;;;5013295;28;20035;-74
2022/10/31 09:56:13;;;;;;;27.25;16.75;;;;;;;;;;5007123;28;20054;-73
2022/10/31 09:58:43;;;;;;;33.15;17.23;;;;;;;;;;5009789;28;20576;-73
2022/10/31 10:01:18;;;;;;;24.25;16.27;;;;;;;;;;5002821;28;20061;-75
2022/10/31 10:03:47;;;;;;;25.25;16.33;;;;;;;;;;5010870;28;20054;-75
2022/10/31 10:06:17;;;;;;;29.55;15.90;;;;;;;;;;5008951;28;20804;-74
2022/10/31 10:08:47;;;;;;;27.42;15.45;;;;;;;;;;5004053;28;20058;-74
2022/10/31 10:11:33;;;;;;;26.10;13.73;;;;;;;;;;5001400;28;20062;-74
2022/10/31 10:14:20;;;;;;;20.20;13.18;;;;;;;;;;5003425;28;20117;-72
2022/10/31 10:16:48;;;;;;;19.25;12.88;;;;;;;;;;4997879;28;20054;-74
2022/10/31 10:19:24;;;;;;;20.02;11.90;;;;;;;;;;5001778;28;20050;-75
2022/10/31 10:22:00;;;;;;;18.27;12.18;;;;;;;;;;5006671;28;20917;-76
2022/10/31 10:24:30;;;;;;;;;;;;;;;;;;5000633;28;20800;-72
2022/10/31 10:27:05;;;;;;;21.52;11.93;;;;;;;;;;5002073;28;44797;-75
2022/10/31 10:29:34;;;;;;;24.45;12.20;;;;;;;;;;5000223;28;20054;-75
2022/10/31 10:32:05;;;;;;;24.63;12.55;;;;;;;;;;5001284;28;20054;-75
2022/10/31 10:34:40;;;;;;;23.63;12.23;;;;;;;;;;4999946;28;20555;-74
2022/10/31 10:37:29;;;;;;;21.95;12.05;;;;;;;;;;5002578;28;20105;-75
2022/10/31 10:40:01;;;;;;;25.00;12.13;;;;;;;;;;5002550;28;20082;-74
2022/10/31 10:48:30;;;;;;;23.95;13.35;;;;;;;;;;4997484;28;20043;-74
2022/10/31 10:51:04;;;;;;;22.33;13.13;;;;;;;;;;5002256;28;20058;-73
2022/10/31 10:54:21;;;;;;;26.33;13.82;;;;;;;;;;4997746;28;20154;-74
2022/10/31 11:00:03;;;;;;;23.35;13.52;;;;;;;;;;5000280;28;20118;-74
2022/10/31 11:02:32;;;;;;;21.77;13.80;;;;;;;;;;4985897;28;20138;-75
2022/10/31 11:05:01;;;;;;;26.10;13.27;;;;;;;;;;5001084;28;20054;-73
2022/10/31 11:07:38;;;;;;;27.67;14.18;;;;;;;;;;5003276;28;20043;-74
2022/10/31 11:10:16;;;;;;;25.08;13.93;;;;;;;;;;5014932;28;20058;-73
2022/10/31 11:13:23;;;;;;;23.65;13.52;;;;;;;;;;5001329;28;20795;-73
2022/10/31 11:15:54;;;;;;;27.50;12.98;;;;;;;;;;5004723;28;20329;-74
2022/10/31 11:18:24;;;;;;;27.92;14.50;;;;;;;;;;4997633;28;20047;-74
2022/10/31 11:20:53;;;;;;;24.92;13.10;;;;;;;;;;5002042;28;20051;-73
2022/10/31 11:23:21;;;;;;;25.42;13.27;;;;;;;;;;5004791;28;20081;-73
2022/10/31 11:25:53;;;;;;;24.20;12.60;;;;;;;;;;5009065;28;20073;-73
2022/10/31 11:28:34;;;;;;;24.60;13.10;;;;;;;;;;5004886;28;20498;-74
2022/10/31 11:31:21;;;;;;;20.10;12.70;;;;;;;;;;5004653;28;20061;-74
2022/10/31 11:34:53;;;;;;;;;;;;;;;;;;;;;
2022/10/31 11:37:45;;;;;;;27.55;13.10;;;;;;;;;;4998907;28;20870;-74
2022/10/31 11:40:17;;;;;;;28.58;14.63;;;;;;;;;;5007043;28;20162;-74
2022/10/31 11:42:58;;;;;;;26.50;14.43;;;;;;;;;;4999152;28;20509;-74
2022/10/31 11:45:33;;;;;;;25.70;14.30;;;;;;;;;;5009681;28;20054;-74
2022/10/31 11:48:20;;;;;;;29.05;15.43;;;;;;;;;;5006746;28;20145;-74
2022/10/31 11:50:56;;;;;;;32.97;14.90;;;;;;;;;;5009188;28;20626;-73
2022/10/31 11:53:32;;;;;;;27.90;15.05;;;;;;;;;;5008919;28;20120;-73
2022/10/31 11:56:14;;;;;;;36.58;15.65;;;;;;;;;;5007072;28;20523;-74
2022/10/31 11:58:42;;;;;;;30.40;15.02;;;;;;;;;;5007668;28;20058;-74
2022/10/31 12:01:29;;;;;;;36.45;16.27;;;;;;;;;;5008124;28;20551;-73
2022/10/31 12:04:10;;;;;;;35.28;16.42;;;;;;;;;;4999641;28;20038;-74
2022/10/31 12:06:39;;;;;;;34.40;16.88;;;;;;;;;;5009227;28;20055;-73
2022/10/31 12:09:36;;;;;;;36.78;17.50;;;;;;;;;;5006930;28;20057;-74
2022/10/31 12:12:20;;;;;;;35.80;17.48;;;;;;;;;;4994591;28;20132;-74
2022/10/31 12:15:09;;;;;;;31.63;17.75;;;;;;;;;;5002641;28;20580;-74
2022/10/31 12:18:00;;;;;;;35.30;18.02;;;;;;;;;;5005638;28;20897;-73
2022/10/31 12:20:45;;;;;;;37.42;17.90;;;;;;;;;;4997707;28;20154;-73
2022/10/31 12:23:28;;;;;;;45.10;20.35;;;;;;;;;;5003977;28;20055;-74
2022/10/31 12:26:01;;;;;;;36.03;19.92;;;;;;;;;;5006454;28;20070;-74
2022/10/31 12:28:31;;;;;;;;;;;;;;;;;;5002638;28;20058;-74
2022/10/31 12:31:07;;;;;;;40.50;19.58;;;;;;;;;;5007004;28;42044;-75
2022/10/31 12:33:59;;;;;;;39.25;20.98;;;;;;;;;;5005006;28;20074;-73
2022/10/31 12:36:54;;;;;;;46.08;21.50;;;;;;;;;;5003785;28;20973;-73
2022/10/31 12:39:36;;;;;;;45.33;20.13;;;;;;;;;;5007171;28;20055;-73
2022/10/31 12:42:35;;;;;;;41.25;21.52;;;;;;;;;;5007864;28;20057;-73
2022/10/31 12:45:29;;;;;;;39.65;21.52;;;;;;;;;;5008496;28;20132;-73
2022/10/31 12:48:27;;;;;;;41.72;21.10;;;;;;;;;;5008410;28;20125;-73
2022/10/31 12:51:33;;;;;;;43.40;21.15;;;;;;;;;;4993572;28;20058;-74
2022/10/31 12:54:43;;;;;;;46.60;23.17;;;;;;;;;;4998142;28;20840;-73
2022/10/31 12:57:38;;;;;;;44.45;22.02;;;;;;;;;;4946073;28;20079;-73
2022/10/31 13:00:15;;;;;;;40.75;21.20;;;;;;;;;;4963796;28;20234;-73
2022/10/31 13:03:15;;;;;;;40.15;21.50;;;;;;;;;;4953084;28;20059;-73
2022/10/31 13:05:44;;;;;;;52.53;22.38;;;;;;;;;;4963449;28;20075;-73
2022/10/31 13:08:35;;;;;;;54.75;22.15;;;;;;;;;;4966591;28;20038;-73
2022/10/31 13:11:38;;;;;;;46.17;21.67;;;;;;;;;;4965899;28;20075;-73
2022/10/31 13:14:41;;;;;;;42.42;21.85;;;;;;;;;;4965806;28;20790;-72
2022/10/31 13:17:14;;;;;;;51.00;22.13;;;;;;;;;;4965875;28;20059;-73
2022/10/31 13:20:18;;;;;;;46.58;22.08;;;;;;;;;;4948893;28;20602;-74
2022/10/31 13:22:51;;;;;;;49.25;20.38;;;;;;;;;;4963205;28;20058;-74
2022/10/31 13:25:30;;;;;;;44.33;21.10;;;;;;;;;;4975995;28;20086;-74
2022/10/31 13:28:24;;;;;;;44.53;23.20;;;;;;;;;;4985049;28;20049;-74
2022/10/31 13:30:54;;;;;;;43.67;22.02;;;;;;;;;;5020022;28;20054;-73
2022/10/31 13:33:48;;;;;;;47.83;22.25;;;;;;;;;;5005538;28;20917;-74
2022/10/31 13:36:51;;;;;;;41.22;20.85;;;;;;;;;;5009828;28;20596;-74
2022/10/31 13:39:27;;;;;;;43.25;20.92;;;;;;;;;;5017776;28;20075;-74
2022/10/31 13:44:45;;;;;;;44.30;21.60;;;;;;;;;;5016291;28;20066;-73
2022/10/31 13:47:46;;;;;;;44.00;20.98;;;;;;;;;;5015842;28;20058;-74
2022/10/31 13:50:19;;;;;;;45.33;20.98;;;;;;;;;;5013711;28;20054;-74
2022/10/31 13:52:49;;;;;;;40.13;21.08;;;;;;;;;;5012414;28;20098;-74
2022/10/31 13:55:36;;;;;;;40.78;20.70;;;;;;;;;;5017452;28;20070;-74
2022/10/31 13:58:23;;;;;;;40.55;20.30;;;;;;;;;;5019212;28;20046;-73
2022/10/31 14:01:28;;;;;;;40.83;20.30;;;;;;;;;;5030040;28;20077;-75
2022/10/31 14:04:06;;;;;;;46.10;21.23;;;;;;;;;;5017036;28;20051;-74
2022/10/31 14:06:53;;;;;;;41.03;20.48;;;;;;;;;;5014834;28;20046;-75
2022/10/31 14:09:53;;;;;;;39.90;20.08;;;;;;;;;;5013913;28;20855;-74
2022/10/31 14:12:31;;;;;;;49.70;20.13;;;;;;;;;;5005394;28;20050;-73
2022/10/31 14:15:14;;;;;;;40.78;20.25;;;;;;;;;;5019161;28;20041;-73
2022/10/31 14:17:52;;;;;;;44.80;21.17;;;;;;;;;;5017090;28;20904;-74
2022/10/31 14:20:20;;;;;;;40.30;20.25;;;;;;;;;;5012445;28;20051;-74
2022/10/31 14:22:47;;;;;;;38.75;19.50;;;;;;;;;;5015804;28;20042;-74
2022/10/31 14:25:24;;;;;;;43.60;20.88;;;;;;;;;;5019713;28;20109;-74
2022/10/31 14:27:55;;;;;;;43.85;19.50;;;;;;;;;;5016445;28;20050;-73
2022/10/31 14:30:36;;;;;;;39.75;21.08;;;;;;;;;;5006450;28;20047;-74
2022/10/31 14:33:13;;;;;;;40.60;20.55;;;;;;;;;;5019293;28;20046;-74
2022/10/31 14:35:59;;;;;;;39.63;20.25;;;;;;;;;;5021482;28;20107;-75
2022/10/31 14:38:56;;;;;;;34.42;18.63;;;;;;;;;;5021096;28;20070;-73
2022/10/31 14:41:50;;;;;;;42.97;20.58;;;;;;;;;;5000232;28;20059;-74
2022/10/31 14:44:27;;;;;;;48.15;22.10;;;;;;;;;;5026362;28;20066;-74
2022/10/31 14:47:01;;;;;;;53.88;21.15;;;;;;;;;;5020102;28;20077;-74
2022/10/31 14:49:58;;;;;;;42.90;20.02;;;;;;;;;;5027669;28;20049;-74
2022/10/31 14:52:33;;;;;;;42.95;20.33;;;;;;;;;;5022641;28;20050;-74
2022/10/31 14:55:02;;;;;;;40.30;19.45;;;;;;;;;;5023096;28;20038;-75
2022/10/31 14:57:33;;;;;;;37.75;19.50;;;;;;;;;;5018978;28;20054;-75
2022/10/31 15:00:33;;;;;;;;;;;;;;;;;;;;;
2022/10/31 15:03:12;;;;;;;43.90;19.13;;;;;;;;;;5025008;28;20089;-75
2022/10/31 15:05:45;;;;;;;38.38;18.60;;;;;;;;;;5022466;28;20050;-74
2022/10/31 15:08:12;;;;;;;;;;;;;;;;;;5024457;28;20144;-75
2022/10/31 15:10:45;;;;;;;37.00;18.08;;;;;;;;;;5016431;28;42134;-74
2022/10/31 15:13:18;;;;;;;35.60;18.63;;;;;;;;;;5022674;28;20042;-73
2022/10/31 15:15:55;;;;;;;39.85;18.88;;;;;;;;;;5014685;28;20046;-73
2022/10/31 15:19:01;;;;;;;37.70;17.45;;;;;;;;;;5013320;28;20055;-73
2022/10/31 15:21:29;;;;;;;35.05;17.88;;;;;;;;;;5015595;28;20047;-73
2022/10/31 15:24:04;;;;;;;43.13;19.17;;;;;;;;;;5023741;28;20053;-74
2022/10/31 15:26:40;;;;;;;36.63;17.75;;;;;;;;;;5025544;28;20202;-73
2022/10/31 15:29:15;;;;;;;37.90;17.55;;;;;;;;;;5024362;28;20118;-73
2022/10/31 15:31:50;;;;;;;37.97;18.30;;;;;;;;;;5017240;28;20062;-74
2022/10/31 15:34:21;;;;;;;35.95;17.85;;;;;;;;;;5020015;28;20675;-74
2022/10/31 15:36:51;;;;;;;33.85;17.30;;;;;;;;;;5018198;28;20058;-74